Fenwick, West Virginia
Current Conditions -  °F | °C
As of 2:55 PM on Saturday 20 Dec 2014 (Local Time) from KLWB Reporting Station
Overcast Overcast  
Wind Chill:   Ceiling: 1600
Heat Index:   Visibility: 10mi
Dew Point: -2°   Wind: 3mph
Humidity: 72%   Direction: 190°S
Pressure: 30.13"   Gusts: NA
Location:  38.23°N, 80.58°W
Report Text: KLWB 201955Z AUTO 19003KT 10SM OVC016 03/M02 A3013 RMK AO2 T00251020
Loading
Personal Weather Stations






























Interactive Weather Map New forecast layout! Learn more

10-Day Weather Forecast

Advertisements
Track Severe Weather on mobile